createdAt,value
2018-07-12T00:02:13.786Z,72.70
2018-07-12T00:04:42.105Z,71.20
2018-07-12T00:07:10.409Z,70.50
2018-07-12T00:09:38.454Z,71.40
2018-07-12T00:12:06.522Z,70.50
2018-07-12T00:14:34.566Z,68.30
2018-07-12T00:17:02.614Z,67.40
2018-07-12T00:19:30.667Z,69.60
2018-07-12T00:21:58.714Z,68.90
2018-07-12T00:24:26.811Z,68.90
2018-07-12T00:26:54.851Z,67.10
2018-07-12T00:29:22.973Z,67.30
2018-07-12T00:31:51.286Z,66.40
2018-07-12T00:34:19.669Z,63.70
2018-07-12T00:36:47.749Z,64.00
2018-07-12T00:39:15.838Z,64.00
2018-07-12T00:41:43.881Z,63.50
2018-07-12T00:44:11.931Z,64.80
2018-07-12T00:46:40.321Z,63.70
2018-07-12T00:49:08.358Z,65.80
2018-07-12T00:51:36.418Z,66.00
2018-07-12T00:54:04.462Z,66.20
2018-07-12T00:56:32.506Z,66.20
2018-07-12T00:59:00.569Z,65.30
2018-07-12T01:01:28.672Z,64.90
2018-07-12T01:03:57.191Z,65.70
2018-07-12T01:06:25.253Z,65.50
2018-07-12T01:08:53.586Z,64.80
2018-07-12T01:11:21.630Z,63.00
2018-07-12T01:13:49.904Z,63.50
2018-07-12T01:16:17.995Z,64.60
2018-07-12T01:18:46.038Z,63.10
2018-07-12T01:21:14.125Z,64.20
2018-07-12T01:23:42.525Z,63.50
2018-07-12T01:26:10.564Z,64.00
2018-07-12T01:28:38.631Z,63.00
2018-07-12T01:31:06.666Z,63.70
2018-07-12T01:33:34.717Z,63.00
2018-07-12T01:36:02.826Z,63.50
2018-07-12T01:38:31.158Z,65.70
2018-07-12T01:40:59.533Z,63.50
2018-07-12T01:43:27.578Z,62.40
2018-07-12T01:45:55.616Z,62.20
2018-07-12T01:48:23.699Z,62.10
2018-07-12T01:50:51.745Z,62.40
2018-07-12T01:53:20.099Z,61.00
2018-07-12T01:55:48.445Z,59.50
2018-07-12T01:58:16.481Z,58.00
2018-07-12T02:00:44.931Z,56.90
2018-07-12T02:03:12.982Z,55.10
2018-07-12T02:05:41.125Z,54.10
2018-07-12T02:08:10.295Z,52.70
2018-07-12T02:10:38.805Z,51.80
2018-07-12T02:13:07.073Z,51.10
2018-07-12T02:15:35.129Z,50.50
2018-07-12T02:18:03.423Z,49.90
2018-07-12T02:20:31.460Z,49.50
2018-07-12T02:22:59.532Z,48.90
2018-07-12T02:25:27.569Z,48.30
2018-07-12T02:27:55.611Z,48.00
2018-07-12T02:30:23.680Z,47.50
2018-07-12T02:32:51.999Z,47.30
2018-07-12T02:35:20.367Z,46.80
2018-07-12T02:37:48.413Z,46.70
2018-07-12T02:40:16.729Z,46.40
2018-07-12T02:42:44.789Z,46.20
2018-07-12T02:45:13.386Z,46.10
2018-07-12T02:47:41.422Z,45.90
2018-07-12T02:50:09.470Z,45.80
2018-07-12T02:52:37.554Z,45.60
2018-07-12T02:55:05.595Z,45.60
2018-07-12T02:57:33.664Z,45.50
2018-07-12T03:00:01.752Z,45.50
2018-07-12T03:02:29.787Z,45.30
2018-07-12T03:04:58.758Z,45.30
2018-07-12T03:07:26.790Z,45.20
2018-07-12T03:09:54.828Z,45.20
2018-07-12T03:12:22.895Z,45.20
2018-07-12T03:14:51.261Z,45.00
2018-07-12T03:17:19.298Z,45.00
2018-07-12T03:19:47.611Z,45.00
2018-07-12T03:22:15.638Z,45.00
2018-07-12T03:24:43.896Z,44.90
2018-07-12T03:27:11.982Z,44.90
2018-07-12T03:29:40.050Z,44.90
2018-07-12T03:32:08.104Z,44.90
2018-07-12T03:34:36.451Z,44.70
2018-07-12T03:37:04.498Z,44.70
2018-07-12T03:39:32.530Z,44.70
2018-07-12T03:42:00.563Z,44.70
2018-07-12T03:44:28.627Z,44.60
2018-07-12T03:46:56.906Z,44.60
2018-07-12T03:49:24.943Z,44.60
2018-07-12T03:51:52.994Z,44.40
2018-07-12T03:54:21.030Z,44.40
2018-07-12T03:56:49.066Z,44.40
2018-07-12T03:59:17.106Z,44.40
2018-07-12T04:01:45.149Z,44.40
2018-07-12T04:04:13.200Z,44.40
2018-07-12T04:06:41.529Z,44.40
2018-07-12T04:09:09.721Z,44.40
2018-07-12T04:11:37.812Z,44.40
2018-07-12T04:14:06.342Z,44.30
2018-07-12T04:16:34.667Z,44.30
2018-07-12T04:19:02.694Z,44.30
2018-07-12T04:21:30.724Z,44.30
2018-07-12T04:23:58.782Z,44.30
2018-07-12T04:26:26.810Z,44.30
2018-07-12T04:28:54.874Z,44.30
2018-07-12T04:33:51.445Z,44.10
2018-07-12T04:36:19.491Z,44.10
2018-07-12T04:38:47.832Z,44.10
2018-07-12T04:41:15.869Z,44.10
2018-07-12T04:43:43.926Z,44.10
2018-07-12T04:46:12.324Z,44.10
2018-07-12T04:48:40.391Z,44.00
2018-07-12T04:51:08.484Z,44.00
2018-07-12T04:53:36.553Z,44.00
2018-07-12T04:56:04.709Z,44.00
2018-07-12T04:58:32.820Z,44.00
2018-07-12T05:01:00.840Z,44.00
2018-07-12T05:03:29.084Z,44.00
2018-07-12T05:05:57.145Z,43.90
2018-07-12T05:08:25.286Z,43.90
2018-07-12T05:10:53.351Z,44.00
2018-07-12T05:13:21.391Z,43.90
2018-07-12T05:15:49.690Z,43.90
2018-07-12T05:18:17.763Z,43.70
2018-07-12T05:20:45.802Z,43.90
2018-07-12T05:23:14.452Z,43.70
2018-07-12T05:25:42.810Z,43.70
2018-07-12T05:28:10.889Z,43.60
2018-07-12T05:30:38.951Z,43.60
2018-07-12T05:33:07.040Z,43.60
2018-07-12T05:35:37.244Z,43.40
2018-07-12T05:38:06.729Z,43.40
2018-07-12T05:40:36.009Z,43.40
2018-07-12T05:43:05.133Z,43.30
2018-07-12T05:45:34.184Z,43.30
2018-07-12T05:48:03.397Z,43.10
2018-07-12T05:50:32.505Z,43.10
2018-07-12T05:53:01.905Z,43.10
2018-07-12T05:55:31.034Z,43.00
2018-07-12T05:58:00.409Z,43.00
2018-07-12T06:00:29.490Z,42.80
2018-07-12T06:02:58.639Z,42.80
2018-07-12T06:05:28.251Z,42.80
2018-07-12T06:07:57.649Z,42.80
2018-07-12T06:10:27.063Z,42.70
2018-07-12T06:12:56.154Z,42.70
2018-07-12T06:15:25.753Z,42.70
2018-07-12T06:17:55.097Z,42.80
2018-07-12T06:20:24.214Z,42.80
2018-07-12T06:22:53.341Z,42.80
2018-07-12T06:25:22.414Z,42.70
2018-07-12T06:27:51.839Z,42.50
2018-07-12T06:30:21.214Z,42.40
2018-07-12T06:32:50.552Z,42.40
2018-07-12T06:35:19.618Z,42.40
2018-07-12T06:37:49.013Z,42.20
2018-07-12T06:40:18.228Z,42.20
2018-07-12T06:42:47.638Z,42.20
2018-07-12T06:45:16.730Z,42.20
2018-07-12T06:47:45.798Z,42.10
2018-07-12T06:50:15.237Z,41.90
2018-07-12T06:52:44.599Z,42.10
2018-07-12T06:55:13.949Z,42.10
2018-07-12T06:57:43.125Z,42.10
2018-07-12T07:00:12.189Z,42.10
2018-07-12T07:02:41.299Z,41.90
2018-07-12T07:05:10.437Z,41.90
2018-07-12T07:07:39.754Z,41.90
2018-07-12T07:10:08.842Z,42.10
2018-07-12T07:12:38.002Z,41.90
2018-07-12T07:15:07.058Z,42.10
2018-07-12T07:17:36.131Z,42.20
2018-07-12T07:20:05.240Z,42.10
2018-07-12T07:22:34.297Z,42.20
2018-07-12T07:25:03.432Z,42.20
2018-07-12T07:27:32.537Z,42.10
2018-07-12T07:30:01.634Z,42.20
2018-07-12T07:32:31.047Z,42.40
2018-07-12T07:35:00.170Z,42.40
2018-07-12T07:37:29.246Z,42.50
2018-07-12T07:39:58.363Z,42.50
2018-07-12T07:42:27.780Z,42.40
2018-07-12T07:44:56.834Z,42.20
2018-07-12T07:47:26.198Z,42.20
2018-07-12T07:52:24.565Z,42.20
2018-07-12T07:54:53.663Z,42.20
2018-07-12T07:57:22.845Z,42.20
2018-07-12T07:59:51.932Z,42.20
2018-07-12T08:02:21.041Z,42.40
2018-07-12T08:04:50.578Z,42.20
2018-07-12T08:07:19.915Z,42.10
2018-07-12T08:09:49.382Z,42.20
2018-07-12T08:12:18.731Z,42.10
2018-07-12T08:14:47.845Z,42.10
2018-07-12T08:17:16.994Z,42.10
2018-07-12T08:19:46.080Z,42.10
2018-07-12T08:22:15.333Z,42.10
2018-07-12T08:24:44.438Z,42.10
2018-07-12T08:27:13.533Z,42.10
2018-07-12T08:29:42.619Z,42.10
2018-07-12T08:32:11.723Z,42.10
2018-07-12T08:34:41.153Z,42.10
2018-07-12T08:39:38.975Z,42.10
2018-07-12T08:42:07.957Z,42.20
2018-07-12T08:44:37.164Z,42.20
2018-07-12T08:47:06.077Z,42.20
2018-07-12T08:49:35.512Z,42.10
2018-07-12T08:52:04.397Z,42.20
2018-07-12T08:54:33.374Z,42.20
2018-07-12T08:57:02.569Z,42.20
2018-07-12T08:59:31.758Z,42.20
2018-07-12T09:02:00.861Z,42.20
2018-07-12T09:04:29.960Z,42.20
2018-07-12T09:06:58.832Z,42.20
2018-07-12T09:09:28.093Z,42.20
2018-07-12T09:11:57.008Z,42.20
2018-07-12T09:14:25.929Z,42.20
2018-07-12T09:16:55.195Z,42.20
2018-07-12T09:19:24.086Z,42.20
2018-07-12T09:21:52.987Z,42.20
2018-07-12T09:24:22.106Z,42.40
2018-07-12T09:26:51.289Z,42.40
2018-07-12T09:29:20.277Z,42.40
2018-07-12T09:31:49.930Z,42.20
2018-07-12T09:34:18.823Z,42.20
2018-07-12T09:36:48.145Z,42.20
2018-07-12T09:39:18.516Z,42.40
2018-07-12T09:41:49.785Z,42.50
2018-07-12T09:44:19.017Z,42.20
2018-07-12T09:46:48.942Z,42.40
2018-07-12T09:49:17.909Z,42.20
2018-07-12T09:51:46.819Z,42.20
2018-07-12T09:54:15.721Z,42.40
2018-07-12T09:56:56.433Z,42.40
2018-07-12T09:59:25.369Z,42.50
2018-07-12T10:01:59.694Z,42.50
2018-07-12T10:04:28.621Z,42.20
2018-07-12T10:07:02.875Z,42.40
2018-07-12T10:12:10.302Z,42.40
2018-07-12T10:14:45.005Z,42.40
2018-07-12T10:17:19.489Z,42.40
2018-07-12T10:19:48.416Z,42.40
2018-07-12T10:22:17.467Z,42.70
2018-07-12T10:24:46.693Z,42.80
2018-07-12T10:27:15.578Z,42.70
2018-07-12T10:29:44.798Z,42.70
2018-07-12T10:32:13.753Z,42.80
2018-07-12T10:34:42.903Z,42.80
2018-07-12T10:37:11.780Z,42.80
2018-07-12T10:42:09.264Z,42.80
2018-07-12T10:44:38.161Z,43.00
2018-07-12T10:47:07.069Z,43.00
2018-07-12T10:49:36.406Z,42.40
2018-07-12T10:52:05.617Z,42.40
2018-07-12T10:54:35.119Z,42.20
2018-07-12T10:57:04.110Z,42.10
2018-07-12T10:59:33.188Z,41.60
2018-07-12T11:02:02.314Z,41.60
2018-07-12T11:04:31.234Z,41.60
2018-07-12T11:07:00.575Z,41.60
2018-07-12T11:09:29.774Z,41.50
2018-07-12T11:11:58.662Z,41.50
2018-07-12T11:14:27.554Z,41.60
2018-07-12T11:16:56.453Z,41.80
2018-07-12T11:19:25.335Z,41.80
2018-07-12T11:21:54.283Z,41.50
2018-07-12T11:24:23.745Z,41.60
2018-07-12T11:26:52.898Z,41.50
2018-07-12T11:29:32.085Z,41.50
2018-07-12T11:32:01.253Z,41.50
2018-07-12T11:34:30.161Z,41.50
2018-07-12T11:36:59.123Z,41.30
2018-07-12T11:39:28.502Z,41.20
2018-07-12T11:41:57.739Z,40.90
2018-07-12T11:44:29.671Z,40.70
2018-07-12T11:46:58.578Z,40.70
2018-07-12T11:49:27.710Z,40.50
2018-07-12T11:51:56.630Z,40.30
2018-07-12T11:54:25.536Z,40.30
2018-07-12T11:56:54.709Z,40.30
2018-07-12T11:59:23.605Z,40.30
2018-07-12T12:01:52.549Z,40.30
2018-07-12T12:04:21.761Z,40.30
2018-07-12T12:06:51.013Z,40.30
2018-07-12T12:09:19.913Z,40.30
2018-07-12T12:11:48.828Z,40.50
2018-07-12T12:14:18.018Z,40.50
2018-07-12T12:16:48.121Z,40.60
2018-07-12T12:19:17.699Z,40.60
2018-07-12T12:21:47.435Z,40.70
2018-07-12T12:24:16.662Z,40.90
2018-07-12T12:26:45.903Z,40.90
2018-07-12T12:29:15.089Z,41.00
2018-07-12T12:31:44.271Z,41.20
2018-07-12T12:34:13.269Z,41.20
2018-07-12T12:36:42.142Z,41.30
2018-07-12T12:39:11.061Z,41.50
2018-07-12T12:41:40.860Z,41.50
2018-07-12T12:44:10.155Z,41.60
2018-07-12T12:46:39.051Z,41.60
2018-07-12T12:49:08.242Z,41.60
2018-07-12T12:51:37.137Z,41.60
2018-07-12T12:54:06.017Z,41.50
2018-07-12T12:56:35.181Z,41.60
2018-07-12T12:59:04.071Z,41.60
2018-07-12T13:01:34.115Z,41.60
2018-07-12T13:04:03.325Z,41.60
2018-07-12T13:06:32.419Z,41.50
2018-07-12T13:09:01.337Z,41.50
2018-07-12T13:11:30.256Z,41.50
2018-07-12T13:13:59.136Z,41.50
2018-07-12T13:16:28.025Z,41.50
2018-07-12T13:18:56.947Z,41.50
2018-07-12T13:21:25.837Z,41.50
2018-07-12T13:23:55.066Z,41.50
2018-07-12T13:26:23.978Z,41.50
2018-07-12T13:28:53.219Z,41.50
2018-07-12T13:31:22.151Z,41.30
2018-07-12T13:33:51.342Z,41.30
2018-07-12T13:36:20.823Z,41.20
2018-07-12T13:38:49.702Z,41.30
2018-07-12T13:41:18.599Z,41.20
2018-07-12T13:43:47.826Z,41.30
2018-07-12T13:46:16.722Z,41.30
2018-07-12T13:48:45.635Z,41.30
2018-07-12T13:51:14.522Z,41.50
2018-07-12T13:53:43.475Z,41.50
2018-07-12T13:56:12.342Z,41.50
2018-07-12T13:58:41.249Z,41.60
2018-07-12T14:01:10.125Z,41.80
2018-07-12T14:03:39.036Z,41.90
2018-07-12T14:06:07.952Z,42.10
2018-07-12T14:08:37.125Z,42.10
2018-07-12T14:11:06.425Z,42.20
2018-07-12T14:13:35.562Z,42.20
2018-07-12T14:18:33.625Z,42.50
2018-07-12T14:21:02.825Z,42.50
2018-07-12T14:23:32.005Z,42.70
2018-07-12T14:26:00.995Z,42.70
2018-07-12T14:28:29.930Z,42.70
2018-07-12T14:33:27.483Z,43.00
2018-07-12T14:35:56.457Z,43.10
2018-07-12T14:38:25.822Z,43.00
2018-07-12T14:40:54.769Z,43.10
2018-07-12T14:43:23.913Z,43.10
2018-07-12T14:45:53.009Z,43.40
2018-07-12T14:48:22.238Z,43.40
2018-07-12T14:50:51.601Z,43.30
2018-07-12T14:53:20.478Z,43.30
2018-07-12T14:58:18.415Z,43.30
2018-07-12T15:00:47.299Z,43.40
2018-07-12T15:03:16.234Z,43.30
2018-07-12T15:05:45.497Z,43.30
2018-07-12T15:08:14.615Z,43.30
2018-07-12T15:10:43.534Z,43.30
2018-07-12T15:13:12.785Z,43.40
2018-07-12T15:15:41.677Z,43.40
2018-07-12T15:18:10.577Z,43.60
2018-07-12T15:20:39.463Z,43.60
2018-07-12T15:23:08.396Z,43.60
2018-07-12T15:25:37.441Z,43.60
2018-07-12T15:28:06.461Z,43.70
2018-07-12T15:30:35.654Z,43.70
2018-07-12T15:33:04.545Z,43.90
2018-07-12T15:35:33.622Z,44.00
2018-07-12T15:38:02.517Z,44.00
2018-07-12T15:40:32.011Z,44.00
2018-07-12T15:43:00.986Z,44.10
2018-07-12T15:45:30.386Z,43.70
2018-07-12T15:47:59.307Z,43.70
2018-07-12T15:50:28.330Z,43.60
2018-07-12T15:52:57.262Z,43.60
2018-07-12T15:55:26.805Z,43.70
2018-07-12T15:57:55.702Z,43.70
2018-07-12T16:00:24.860Z,43.60
2018-07-12T16:02:53.818Z,43.60
2018-07-12T16:05:23.002Z,43.60
2018-07-12T16:07:52.245Z,43.70
2018-07-12T16:10:21.256Z,43.70
2018-07-12T16:12:50.471Z,43.70
2018-07-12T16:15:19.668Z,43.70
2018-07-12T16:17:48.597Z,43.60
2018-07-12T16:20:17.509Z,43.40
2018-07-12T16:22:46.433Z,43.30
2018-07-12T16:25:15.347Z,43.30
2018-07-12T16:27:44.338Z,43.30
2018-07-12T16:30:13.290Z,43.30
2018-07-12T16:32:42.308Z,43.30
2018-07-12T16:35:11.566Z,43.30
2018-07-12T16:37:40.666Z,43.30
2018-07-12T16:40:09.683Z,43.30
2018-07-12T16:42:38.571Z,43.30
2018-07-12T16:45:07.901Z,43.30
2018-07-12T16:47:36.866Z,43.30
2018-07-12T16:50:05.963Z,43.30
2018-07-12T16:52:34.839Z,43.30
2018-07-12T16:55:03.760Z,43.30
2018-07-12T16:57:32.766Z,43.30
2018-07-12T17:00:01.918Z,43.30
2018-07-12T17:02:30.856Z,43.30
2018-07-12T17:04:59.798Z,43.30
2018-07-12T17:07:28.730Z,43.30
2018-07-12T17:09:57.938Z,43.30
2018-07-12T17:12:26.814Z,43.30
2018-07-12T17:14:55.763Z,43.30
2018-07-12T17:17:24.730Z,43.30
2018-07-12T17:19:54.413Z,43.30
2018-07-12T17:22:23.674Z,43.30
2018-07-12T17:24:52.627Z,43.40
2018-07-12T17:27:22.105Z,43.40
2018-07-12T17:29:51.059Z,43.40
2018-07-12T17:32:20.025Z,43.40
2018-07-12T17:34:48.910Z,43.40
2018-07-12T17:37:17.974Z,43.40
2018-07-12T17:39:46.907Z,43.30
2018-07-12T17:42:15.818Z,43.40
2018-07-12T17:44:44.745Z,43.40
2018-07-12T17:47:14.286Z,43.40
2018-07-12T17:49:43.226Z,43.40
2018-07-12T17:52:12.135Z,43.40
2018-07-12T17:54:41.389Z,43.40
2018-07-12T17:57:10.277Z,43.40
2018-07-12T17:59:39.639Z,43.40
2018-07-12T18:02:08.548Z,43.30
2018-07-12T18:04:37.730Z,43.40
2018-07-12T18:07:06.798Z,43.40
2018-07-12T18:09:35.797Z,43.40
2018-07-12T18:12:04.792Z,43.40
2018-07-12T18:14:33.894Z,43.40
2018-07-12T18:17:02.998Z,43.40
2018-07-12T18:19:31.922Z,43.40
2018-07-12T18:22:00.890Z,43.40
2018-07-12T18:24:30.054Z,43.40
2018-07-12T18:26:59.450Z,43.40
2018-07-12T18:29:28.398Z,43.40
2018-07-12T18:31:57.598Z,43.60
2018-07-12T18:34:26.770Z,43.60
2018-07-12T18:36:55.838Z,43.60
2018-07-12T18:39:24.848Z,43.60
2018-07-12T18:41:54.014Z,43.60
2018-07-12T18:44:23.297Z,43.60
2018-07-12T18:46:52.219Z,43.40
2018-07-12T18:49:21.104Z,43.40
2018-07-12T18:51:50.314Z,43.40
2018-07-12T18:54:19.425Z,43.40
2018-07-12T18:56:48.568Z,43.60
2018-07-12T18:59:17.642Z,43.40
2018-07-12T19:01:46.758Z,43.60
2018-07-12T19:04:15.777Z,43.60
2018-07-12T19:06:45.366Z,43.60
2018-07-12T19:09:14.307Z,43.60
2018-07-12T19:11:43.473Z,43.60
2018-07-12T19:14:12.443Z,43.60
2018-07-12T19:16:41.378Z,43.60
2018-07-12T19:19:10.281Z,43.70
2018-07-12T19:21:39.230Z,43.70
2018-07-12T19:24:08.424Z,43.70
2018-07-12T19:26:37.369Z,43.70
2018-07-12T19:29:06.405Z,43.70
2018-07-12T19:31:35.340Z,43.70
2018-07-12T19:34:04.527Z,43.70
2018-07-12T19:36:33.490Z,43.70
2018-07-12T19:39:02.399Z,43.70
2018-07-12T19:41:32.461Z,43.70
2018-07-12T19:44:01.630Z,43.70
2018-07-12T19:46:30.626Z,43.70
2018-07-12T19:48:59.516Z,43.70
2018-07-12T19:51:30.593Z,43.70
2018-07-12T19:53:59.505Z,43.70
2018-07-12T19:56:28.444Z,43.70
2018-07-12T19:58:57.382Z,43.90
2018-07-12T20:01:26.367Z,43.90
2018-07-12T20:03:55.292Z,43.90
2018-07-12T20:06:24.218Z,43.90
2018-07-12T20:08:53.646Z,43.90
2018-07-12T20:11:22.884Z,43.90
2018-07-12T20:13:51.790Z,43.90
2018-07-12T20:16:20.682Z,43.90
2018-07-12T20:18:49.573Z,43.90
2018-07-12T20:21:18.482Z,43.90
2018-07-12T20:23:47.666Z,43.90
2018-07-12T20:26:16.662Z,43.70
2018-07-12T20:28:45.641Z,43.90
2018-07-12T20:31:15.049Z,43.90
2018-07-12T20:33:44.020Z,43.90
2018-07-12T20:36:12.973Z,43.90
2018-07-12T20:38:41.986Z,43.90
2018-07-12T20:41:10.879Z,43.90
2018-07-12T20:43:39.812Z,43.90
2018-07-12T20:46:08.737Z,43.90
2018-07-12T20:48:38.048Z,43.90
2018-07-12T20:51:07.613Z,43.70
2018-07-12T20:53:36.534Z,43.90
2018-07-12T20:56:05.487Z,43.90
2018-07-12T20:58:34.439Z,43.90
2018-07-12T21:01:03.374Z,43.90
2018-07-12T21:03:32.453Z,43.90
2018-07-12T21:06:01.375Z,44.00
2018-07-12T21:08:30.565Z,44.00
2018-07-12T21:10:59.682Z,44.00
2018-07-12T21:13:29.130Z,44.00
2018-07-12T21:15:58.008Z,44.00
2018-07-12T21:18:27.446Z,44.00
2018-07-12T21:20:56.652Z,44.00
2018-07-12T21:23:25.558Z,44.00
2018-07-12T21:25:54.437Z,44.00
2018-07-12T21:28:23.358Z,44.00
2018-07-12T21:30:52.302Z,44.00
2018-07-12T21:33:21.726Z,44.10
2018-07-12T21:35:50.966Z,44.10
2018-07-12T21:38:19.841Z,44.30
2018-07-12T21:40:48.742Z,44.30
2018-07-12T21:43:18.006Z,44.00
2018-07-12T21:45:46.911Z,44.30
2018-07-12T21:48:15.825Z,44.10
2018-07-12T21:50:45.034Z,44.10
2018-07-12T21:53:13.975Z,44.10
2018-07-12T21:55:42.898Z,44.30
2018-07-12T21:58:11.812Z,44.30
2018-07-12T22:00:42.026Z,44.30
2018-07-12T22:03:12.909Z,44.30
2018-07-12T22:05:43.407Z,44.30
2018-07-12T22:08:18.509Z,44.40
2018-07-12T22:10:50.485Z,44.40
2018-07-12T22:15:52.105Z,44.40
2018-07-12T22:18:23.240Z,44.40
2018-07-12T22:20:53.839Z,44.40
2018-07-12T22:23:24.415Z,44.40
2018-07-12T22:25:55.058Z,44.40
2018-07-12T22:28:26.815Z,44.40
2018-07-12T22:30:57.590Z,44.60
2018-07-12T22:33:28.198Z,44.40
2018-07-12T22:35:58.997Z,44.40
2018-07-12T22:38:29.486Z,44.40
2018-07-12T22:41:00.287Z,44.40
2018-07-12T22:46:00.888Z,44.60
2018-07-12T22:48:31.635Z,44.40
2018-07-12T22:51:02.079Z,44.40
2018-07-12T22:53:31.995Z,44.40
2018-07-12T22:56:02.429Z,44.40
2018-07-12T22:58:33.878Z,44.60
2018-07-12T23:01:04.847Z,44.60
2018-07-12T23:03:34.743Z,44.60
2018-07-12T23:06:05.397Z,44.60
2018-07-12T23:11:06.360Z,44.60
2018-07-12T23:13:36.732Z,44.60
2018-07-12T23:16:08.013Z,44.60
2018-07-12T23:18:38.546Z,44.60
2018-07-12T23:21:09.410Z,44.60
2018-07-12T23:23:40.530Z,44.60
2018-07-12T23:26:11.511Z,44.60
2018-07-12T23:28:41.677Z,44.60
2018-07-12T23:31:12.243Z,44.60
2018-07-12T23:33:42.858Z,44.60
2018-07-12T23:36:13.262Z,44.60
2018-07-12T23:38:43.611Z,44.60
2018-07-12T23:41:14.145Z,44.60
2018-07-12T23:43:45.095Z,44.60
2018-07-12T23:48:48.020Z,44.40
2018-07-12T23:51:18.420Z,44.40
2018-07-12T23:53:49.665Z,44.40
2018-07-12T23:56:22.137Z,44.40
2018-07-12T23:58:52.401Z,44.60
